Time;durP1;ratioP1;P1;durP2;ratioP2;P2;SDS_P1;SDS_P2;PMS_P1;PMS_P2;Temp;Humidity;BMP_temperature;BMP_pressure;BME280_temperature;BME280_humidity;BME280_pressure;Samples;Min_cycle;Max_cycle;Signal;HPM_P1;HPM_P2
2023/05/21 00:01:22;;;;;;;;;;;;;;;24.23;34.45;101230.34;4129912;28;19921;-72
2023/05/21 00:03:25;;;;;;;;;;;;;;;24.24;34.38;101237.41;4130475;28;20346;-72
2023/05/21 00:05:27;;;;;;;;;;;;;;;24.27;34.40;101240.84;4131673;28;19925;-72
2023/05/21 00:07:30;;;;;;;;;;;;;;;24.22;34.60;101247.44;4131501;28;19968;-73
2023/05/21 00:09:32;;;;;;;;;;;;;;;24.24;34.43;101242.78;4131593;28;19968;-72
2023/05/21 00:11:33;;;;;;;;;;;;;;;24.23;34.56;101229.50;4131362;28;19932;-72
2023/05/21 00:13:35;;;;;;;;;;;;;;;24.24;34.31;101223.97;4130484;28;20395;-72
2023/05/21 00:15:36;;;;;;;;;;;;;;;24.27;34.42;101227.41;4131424;28;19929;-72
2023/05/21 00:17:38;;;;;;;;;;;;;;;24.24;34.35;101229.34;4114173;28;19929;-71
2023/05/21 00:19:40;;;;;;;;;;;;;;;24.27;34.60;101228.25;4131420;28;20029;-71
2023/05/21 00:21:44;;;;;;;;;;;;;;;24.25;34.37;101222.13;4131453;28;20070;-72
2023/05/21 00:23:47;;;;;;;;;;;;;;;24.24;34.63;101228.50;4130303;28;19961;-72
2023/05/21 00:25:49;;;;;;;;;;;;;;;24.27;34.58;101219.34;4130217;28;19921;-72
2023/05/21 00:27:50;;;;;;;;;;;;;;;24.27;34.51;101225.56;4131173;28;19922;-72
2023/05/21 00:29:52;;;;;;;;;;;;;;;24.25;34.46;101224.81;4130817;28;19922;-71
2023/05/21 00:31:54;;;;;;;;;;;;;;;24.24;34.64;101220.44;4130898;28;19928;-72
2023/05/21 00:33:56;;;;;;;;;;;;;;;24.24;34.31;101221.28;4130614;28;19921;-71
2023/05/21 00:35:58;;;;;;;;;;;;;;;24.25;34.58;101219.44;4131441;28;19928;-71
2023/05/21 00:37:59;;;;;;;;;;;;;;;24.25;34.37;101224.81;4131241;28;20019;-71
2023/05/21 00:40:04;;;;;;;;;;;;;;;24.27;34.72;101217.50;4131292;28;19922;-71
2023/05/21 00:42:05;;;;;;;;;;;;;;;24.28;34.26;101218.31;4130352;28;20012;-72
2023/05/21 00:44:07;;;;;;;;;;;;;;;24.28;34.54;101211.13;4130626;28;19969;-71
2023/05/21 00:46:10;;;;;;;;;;;;;;;24.29;34.56;101209.28;4131329;28;19953;-71
2023/05/21 00:48:13;;;;;;;;;;;;;;;24.28;34.68;101207.56;4130936;28;20116;-71
2023/05/21 00:50:15;;;;;;;;;;;;;;;24.27;34.24;101209.41;4131100;28;19921;-71
2023/05/21 00:52:20;;;;;;;;;;;;;;;24.27;34.62;101200.53;4129996;28;20013;-71
2023/05/21 00:54:22;;;;;;;;;;;;;;;24.24;34.31;101202.47;4130861;28;20279;-70
2023/05/21 00:56:26;;;;;;;;;;;;;;;24.23;34.41;101198.09;4130907;28;19926;-70
2023/05/21 00:58:28;;;;;;;;;;;;;;;24.26;34.66;101202.34;4130454;28;20023;-71
2023/05/21 01:00:33;;;;;;;;;;;;;;;24.23;34.41;101199.94;4131149;28;19933;-71
2023/05/21 01:02:35;;;;;;;;;;;;;;;24.24;34.74;101194.41;4112734;28;19922;-71
2023/05/21 01:04:38;;;;;;;;;;;;;;;24.25;34.33;101200.63;4130919;28;20013;-70
2023/05/21 01:06:41;;;;;;;;;;;;;;;24.22;34.71;101200.91;4131110;28;20025;-71
2023/05/21 01:08:43;;;;;;;;;;;;;;;24.20;34.78;101195.66;4131210;28;19949;-71
2023/05/21 01:10:44;;;;;;;;;;;;;;;24.23;34.56;101197.25;4131282;28;20120;-72
2023/05/21 01:12:46;;;;;;;;;;;;;;;24.26;34.71;101190.75;4130321;28;19925;-71
2023/05/21 01:14:48;;;;;;;;;;;;;;;24.27;34.72;101195.97;4130665;28;20375;-71
2023/05/21 01:16:51;;;;;;;;;;;;;;;24.26;34.58;101193.44;4113657;28;19930;-71
2023/05/21 01:18:52;;;;;;;;;;;;;;;24.27;34.75;101197.84;4131547;28;19926;-72
2023/05/21 01:20:54;;;;;;;;;;;;;;;24.24;34.70;101193.53;4134342;28;20015;-71
2023/05/21 01:22:56;;;;;;;;;;;;;;;24.23;34.74;101192.72;4116067;28;19922;-71
2023/05/21 01:24:57;;;;;;;;;;;;;;;24.21;34.71;101193.81;4134198;28;19957;-70
2023/05/21 01:27:00;;;;;;;;;;;;;;;24.18;34.50;101192.25;4134064;28;19921;-71
2023/05/21 01:29:02;;;;;;;;;;;;;;;24.17;34.73;101197.75;4133945;28;19922;-71
2023/05/21 01:31:10;;;;;;;;;;;;;;;24.17;34.73;101195.06;4117156;28;20024;-71
2023/05/21 01:33:14;;;;;;;;;;;;;;;24.19;34.58;101193.97;4132946;28;20341;-72
2023/05/21 01:35:20;;;;;;;;;;;;;;;24.19;34.55;101195.78;4133889;28;19936;-72
2023/05/21 01:37:40;;;;;;;;;;;;;;;24.17;34.69;101198.63;4133950;28;19922;-71
2023/05/21 01:39:45;;;;;;;;;;;;;;;24.17;34.81;101209.38;4101906;29;19957;-71
2023/05/21 01:41:49;;;;;;;;;;;;;;;24.15;34.65;101199.72;4101831;29;20372;-71
2023/05/21 01:43:52;;;;;;;;;;;;;;;24.15;34.74;101191.66;4100398;29;19934;-71
2023/05/21 01:45:55;;;;;;;;;;;;;;;24.13;34.60;101194.47;4101642;29;19976;-71
2023/05/21 01:47:57;;;;;;;;;;;;;;;24.13;34.96;101191.78;4101896;29;19947;-71
2023/05/21 01:50:02;;;;;;;;;;;;;;;24.12;35.01;101194.59;4101762;29;19942;-71
2023/05/21 01:52:04;;;;;;;;;;;;;;;24.11;34.83;101198.28;4101550;29;19993;-72
2023/05/21 01:54:05;;;;;;;;;;;;;;;24.15;34.93;101199.72;4100922;29;19930;-71
2023/05/21 01:56:07;;;;;;;;;;;;;;;24.16;34.80;101196.06;4101625;29;20010;-72
2023/05/21 01:58:09;;;;;;;;;;;;;;;24.15;34.59;101194.38;4101208;29;20354;-71
2023/05/21 02:00:11;;;;;;;;;;;;;;;24.14;34.71;101190.81;4101708;29;20026;-71
2023/05/21 02:02:13;;;;;;;;;;;;;;;24.15;34.80;101197.88;4100986;29;19923;-72
2023/05/21 02:04:14;;;;;;;;;;;;;;;24.14;34.89;101198.03;4101309;29;19922;-71
2023/05/21 02:06:16;;;;;;;;;;;;;;;24.16;34.93;101191.53;4101328;29;19929;-71
2023/05/21 02:08:18;;;;;;;;;;;;;;;24.14;34.75;101188.13;4101553;29;19923;-71
2023/05/21 02:10:20;;;;;;;;;;;;;;;24.09;34.78;101188.50;4101391;29;19965;-72
2023/05/21 02:12:21;;;;;;;;;;;;;;;24.09;34.75;101198.41;4100035;29;19926;-71
2023/05/21 02:14:24;;;;;;;;;;;;;;;24.07;34.83;101195.88;4100007;29;20407;-71
2023/05/21 02:16:25;;;;;;;;;;;;;;;24.03;34.94;101194.41;4101403;29;19973;-71
2023/05/21 02:18:28;;;;;;;;;;;;;;;24.05;35.21;101183.56;4101261;29;20029;-71
2023/05/21 02:20:30;;;;;;;;;;;;;;;24.05;34.77;101189.75;4101425;29;19984;-71
2023/05/21 02:22:31;;;;;;;;;;;;;;;24.05;34.71;101194.31;4100469;29;19926;-71
2023/05/21 02:24:33;;;;;;;;;;;;;;;24.09;34.80;101190.34;4100914;29;19922;-71
2023/05/21 02:26:34;;;;;;;;;;;;;;;24.11;34.81;101193.78;4119286;28;20340;-72
2023/05/21 02:28:36;;;;;;;;;;;;;;;24.08;34.70;101194.88;4133254;28;20016;-71
2023/05/21 02:30:37;;;;;;;;;;;;;;;24.09;35.06;101201.09;4130751;28;19928;-71
2023/05/21 02:32:41;;;;;;;;;;;;;;;24.10;34.95;101200.13;4132243;28;20391;-71
2023/05/21 02:34:46;;;;;;;;;;;;;;;24.11;35.01;101199.16;4132773;28;19928;-71
2023/05/21 02:36:51;;;;;;;;;;;;;;;24.09;35.01;101201.09;4132751;28;19944;-72
2023/05/21 02:38:52;;;;;;;;;;;;;;;24.07;35.08;101206.63;4133121;28;19933;-71
2023/05/21 02:40:54;;;;;;;;;;;;;;;24.05;35.08;101197.81;4132653;28;20020;-72
2023/05/21 02:42:56;;;;;;;;;;;;;;;24.05;35.05;101205.03;4132065;28;19986;-72
2023/05/21 02:44:57;;;;;;;;;;;;;;;24.06;34.78;101199.53;4132755;28;20020;-71
2023/05/21 02:46:59;;;;;;;;;;;;;;;24.06;34.91;101206.75;4132815;28;19922;-71
2023/05/21 02:49:00;;;;;;;;;;;;;;;24.06;35.22;101204.91;4133045;28;19925;-71
2023/05/21 02:51:02;;;;;;;;;;;;;;;24.06;35.17;101196.84;4132855;28;20379;-71
2023/05/21 02:53:03;;;;;;;;;;;;;;;24.06;35.10;101199.53;4131852;28;19957;-71
2023/05/21 02:55:06;;;;;;;;;;;;;;;24.04;34.75;101197.97;4132336;28;19972;-71
2023/05/21 02:57:07;;;;;;;;;;;;;;;24.06;34.68;101201.38;4132702;28;19921;-70
2023/05/21 02:59:09;;;;;;;;;;;;;;;24.03;34.93;101207.84;4132705;28;19961;-71
2023/05/21 03:01:10;;;;;;;;;;;;;;;24.05;35.16;101200.50;4132649;28;19941;-70
2023/05/21 03:03:12;;;;;;;;;;;;;;;24.04;35.15;101195.28;4131596;28;20434;-71
2023/05/21 03:05:14;;;;;;;;;;;;;;;23.99;35.25;101195.66;4132651;28;19968;-72
2023/05/21 03:07:18;;;;;;;;;;;;;;;23.95;35.26;101196.91;4132871;28;19926;-72
2023/05/21 03:09:21;;;;;;;;;;;;;;;23.92;35.23;101203.38;4132848;28;20038;-71
2023/05/21 03:11:22;;;;;;;;;;;;;;;23.95;35.31;101204.09;4132889;28;19961;-71
2023/05/21 03:13:24;;;;;;;;;;;;;;;23.92;35.20;101202.50;4132117;28;19926;-71
2023/05/21 03:15:25;;;;;;;;;;;;;;;23.92;35.03;101206.06;4132541;28;19929;-72
2023/05/21 03:17:27;;;;;;;;;;;;;;;23.93;35.33;101209.63;4132324;28;19921;-71
2023/05/21 03:19:33;;;;;;;;;;;;;;;23.90;35.08;101212.53;4132260;28;20387;-71
2023/05/21 03:21:35;;;;;;;;;;;;;;;23.90;35.39;101208.03;4132746;28;19934;-71
2023/05/21 03:23:36;;;;;;;;;;;;;;;23.91;35.04;101214.22;4131201;28;19922;-71
2023/05/21 03:25:38;;;;;;;;;;;;;;;23.90;35.30;101212.53;4132580;28;19922;-71
2023/05/21 03:27:40;;;;;;;;;;;;;;;23.88;35.36;101206.44;4132348;28;20008;-72
2023/05/21 03:29:43;;;;;;;;;;;;;;;23.86;35.48;101214.63;4132248;28;20032;-72
2023/05/21 03:31:45;;;;;;;;;;;;;;;23.82;35.49;101210.50;4132069;28;20288;-71
2023/05/21 03:33:46;;;;;;;;;;;;;;;23.84;35.44;101223.78;4131079;28;19922;-72
2023/05/21 03:35:48;;;;;;;;;;;;;;;23.86;35.53;101219.16;4132250;28;20295;-71
2023/05/21 03:37:49;;;;;;;;;;;;;;;23.87;35.18;101218.16;4132339;28;20029;-71
2023/05/21 03:39:51;;;;;;;;;;;;;;;23.87;35.11;101215.47;4132148;28;19956;-71
2023/05/21 03:41:53;;;;;;;;;;;;;;;23.88;35.31;101211.81;4131999;28;20466;-72
2023/05/21 03:43:54;;;;;;;;;;;;;;;23.86;35.44;101205.72;4131277;28;19953;-71
2023/05/21 03:45:56;;;;;;;;;;;;;;;23.87;35.21;101204.75;4131030;28;19928;-70
2023/05/21 03:47:57;;;;;;;;;;;;;;;23.84;35.29;101210.34;4132233;28;19976;-71
2023/05/21 03:50:02;;;;;;;;;;;;;;;23.84;35.49;101205.84;4132471;28;19926;-70
2023/05/21 03:52:03;;;;;;;;;;;;;;;23.86;35.46;101217.31;4132515;28;19984;-71
2023/05/21 03:54:05;;;;;;;;;;;;;;;23.88;35.51;101219.88;4131048;28;19944;-71
2023/05/21 03:56:07;;;;;;;;;;;;;;;23.84;35.48;101227.34;4132082;28;19921;-73
2023/05/21 03:58:09;;;;;;;;;;;;;;;23.80;35.40;101225.03;4132193;28;19921;-71
2023/05/21 04:00:11;;;;;;;;;;;;;;;23.82;35.50;101223.09;4132215;28;20407;-71
2023/05/21 04:02:13;;;;;;;;;;;;;;;23.82;35.51;101226.59;4132436;28;19953;-71
2023/05/21 04:04:14;;;;;;;;;;;;;;;23.83;35.19;101220.25;4130956;28;20301;-73
2023/05/21 04:06:16;;;;;;;;;;;;;;;23.82;35.26;101221.25;4131850;28;19925;-71
2023/05/21 04:08:17;;;;;;;;;;;;;;;23.83;35.50;101220.25;4131607;28;19977;-73
2023/05/21 04:10:20;;;;;;;;;;;;;;;23.87;35.37;101228.91;4132037;28;19921;-73
2023/05/21 04:12:22;;;;;;;;;;;;;;;23.85;35.21;101231.75;4131973;28;20005;-73
2023/05/21 04:14:24;;;;;;;;;;;;;;;23.88;35.02;101238.69;4130677;28;20371;-72
2023/05/21 04:16:25;;;;;;;;;;;;;;;23.87;35.28;101236.97;4131737;28;20016;-71
2023/05/21 04:18:27;;;;;;;;;;;;;;;23.89;35.28;101243.03;4131607;28;19972;-72
2023/05/21 04:20:28;;;;;;;;;;;;;;;23.91;35.04;101238.41;4131816;28;19922;-70
2023/05/21 04:22:30;;;;;;;;;;;;;;;23.91;35.03;101241.09;4131195;28;19921;-71
2023/05/21 04:24:31;;;;;;;;;;;;;;;23.88;35.30;101234.16;4130663;28;19933;-71
2023/05/21 04:26:34;;;;;;;;;;;;;;;23.88;35.37;101244.91;4131117;28;19928;-71
2023/05/21 04:28:35;;;;;;;;;;;;;;;23.87;35.45;101239.66;4131655;28;19976;-72
2023/05/21 04:30:37;;;;;;;;;;;;;;;23.84;35.29;101243.47;4131458;28;20342;-71
2023/05/21 04:32:38;;;;;;;;;;;;;;;23.84;35.43;101239.91;4131546;28;19922;-72
2023/05/21 04:34:40;;;;;;;;;;;;;;;23.83;35.27;101239.06;4130712;28;20299;-71
2023/05/21 04:36:44;;;;;;;;;;;;;;;23.82;35.32;101239.19;4131043;28;19948;-71
2023/05/21 04:38:45;;;;;;;;;;;;;;;23.83;35.27;101247.13;4131451;28;19925;-71
2023/05/21 04:40:50;;;;;;;;;;;;;;;23.86;35.46;101254.06;4131360;28;20036;-72
2023/05/21 04:42:52;;;;;;;;;;;;;;;23.85;35.37;101258.59;4130406;28;19929;-71
2023/05/21 04:44:54;;;;;;;;;;;;;;;23.84;35.41;101251.50;4129792;28;19948;-71
2023/05/21 04:46:56;;;;;;;;;;;;;;;23.82;35.30;101244.56;4131257;28;19922;-71
2023/05/21 04:49:01;;;;;;;;;;;;;;;23.79;35.37;101248.34;4131065;28;20383;-71
2023/05/21 04:51:05;;;;;;;;;;;;;;;23.79;35.26;101258.25;4130615;28;19944;-74
2023/05/21 04:53:06;;;;;;;;;;;;;;;23.78;35.61;101249.34;4129764;28;19926;-73
2023/05/21 04:55:08;;;;;;;;;;;;;;;23.79;35.25;101251.03;4130482;28;19960;-73
2023/05/21 04:57:10;;;;;;;;;;;;;;;23.80;35.51;101254.59;4131114;28;19921;-73
2023/05/21 04:59:12;;;;;;;;;;;;;;;23.80;35.34;101255.41;4130949;28;19922;-73
2023/05/21 05:01:14;;;;;;;;;;;;;;;23.84;35.63;101254.22;4131111;28;19949;-74
2023/05/21 05:03:15;;;;;;;;;;;;;;;23.85;35.52;101257.72;4130484;28;19932;-72
2023/05/21 05:05:17;;;;;;;;;;;;;;;23.81;35.42;101248.22;4131161;28;20027;-72
2023/05/21 05:07:18;;;;;;;;;;;;;;;23.80;35.24;101252.72;4131614;28;20426;-72
2023/05/21 05:09:22;;;;;;;;;;;;;;;23.80;35.49;101246.53;4130872;28;19993;-72
2023/05/21 05:11:25;;;;;;;;;;;;;;;23.79;35.31;101244.81;4130845;28;20391;-71
2023/05/21 05:13:26;;;;;;;;;;;;;;;23.76;35.47;101244.09;4130153;28;19928;-71
2023/05/21 05:15:28;;;;;;;;;;;;;;;23.75;35.36;101249.59;4131217;28;20143;-71
2023/05/21 05:17:30;;;;;;;;;;;;;;;23.77;35.29;101253.00;4131327;28;19928;-71
2023/05/21 05:19:33;;;;;;;;;;;;;;;23.77;35.27;101240.41;4130942;28;19960;-72
2023/05/21 05:21:36;;;;;;;;;;;;;;;23.80;35.48;101242.00;4130998;28;20024;-71
2023/05/21 05:23:38;;;;;;;;;;;;;;;23.81;35.20;101250.91;4130134;28;20029;-71
2023/05/21 05:25:39;;;;;;;;;;;;;;;23.82;35.46;101233.81;4130624;28;20397;-71
2023/05/21 05:27:41;;;;;;;;;;;;;;;23.83;35.25;101247.13;4131016;28;19922;-72
2023/05/21 05:29:43;;;;;;;;;;;;;;;23.85;35.58;101246.97;4131221;28;20016;-71
2023/05/21 05:31:45;;;;;;;;;;;;;;;23.85;35.16;101246.97;4131114;28;20382;-71
2023/05/21 05:33:47;;;;;;;;;;;;;;;23.84;35.25;101248.84;4129886;28;19976;-71
2023/05/21 05:35:48;;;;;;;;;;;;;;;23.83;35.26;101251.63;4113667;28;19922;-71
2023/05/21 05:37:50;;;;;;;;;;;;;;;23.82;35.38;101241.88;4130780;28;20379;-71
2023/05/21 05:39:51;;;;;;;;;;;;;;;23.83;35.53;101244.44;4130732;28;19953;-71
2023/05/21 05:41:53;;;;;;;;;;;;;;;23.83;35.38;101252.50;4130707;28;19926;-72
2023/05/21 05:43:54;;;;;;;;;;;;;;;23.84;35.13;101254.22;4129612;28;20233;-72
2023/05/21 05:45:56;;;;;;;;;;;;;;;23.82;35.58;101252.63;4131314;28;20316;-72
2023/05/21 05:47:58;;;;;;;;;;;;;;;23.77;35.54;101250.31;4131053;28;19976;-72
2023/05/21 05:49:59;;;;;;;;;;;;;;;23.74;35.54;101254.13;4130546;28;19925;-71
2023/05/21 05:52:01;;;;;;;;;;;;;;;23.78;35.52;101257.41;4131257;28;19937;-72
2023/05/21 05:54:02;;;;;;;;;;;;;;;23.78;35.45;101257.41;4130132;28;19972;-71
2023/05/21 05:56:05;;;;;;;;;;;;;;;23.78;35.56;101262.78;4129750;28;20043;-72
2023/05/21 05:58:07;;;;;;;;;;;;;;;23.77;35.27;101255.69;4131031;28;19921;-72
2023/05/21 06:00:09;;;;;;;;;;;;;;;23.77;35.38;101245.78;4130759;28;19922;-72
2023/05/21 06:02:11;;;;;;;;;;;;;;;23.77;35.29;101251.16;4130885;28;20067;-72
2023/05/21 06:04:12;;;;;;;;;;;;;;;23.78;35.62;101257.41;4129771;28;20427;-71
2023/05/21 06:06:14;;;;;;;;;;;;;;;23.68;35.55;101251.94;4133811;28;19926;-71
2023/05/21 06:08:16;;;;;;;;;;;;;;;23.74;35.71;101259.50;4132509;28;19928;-72
2023/05/21 06:10:19;;;;;;;;;;;;;;;23.74;35.55;101261.31;4133951;28;20005;-72
2023/05/21 06:12:21;;;;;;;;;;;;;;;23.72;35.82;101249.81;4133346;28;19929;-71
2023/05/21 06:14:22;;;;;;;;;;;;;;;23.72;35.61;101261.44;4132682;28;19972;-72
2023/05/21 06:16:24;;;;;;;;;;;;;;;23.68;35.66;101260.00;4133821;28;20005;-72
2023/05/21 06:18:26;;;;;;;;;;;;;;;23.68;35.71;101260.00;4133163;28;19921;-71
2023/05/21 06:20:28;;;;;;;;;;;;;;;23.69;35.84;101259.00;4133643;28;19922;-71
2023/05/21 06:22:30;;;;;;;;;;;;;;;23.70;35.74;101257.19;4133728;28;20376;-71
2023/05/21 06:24:31;;;;;;;;;;;;;;;23.69;35.61;101253.63;4132567;28;20025;-71
2023/05/21 06:26:33;;;;;;;;;;;;;;;23.68;35.93;101249.25;4133382;28;19954;-73
2023/05/21 06:28:35;;;;;;;;;;;;;;;23.68;35.80;101254.63;4116227;28;19922;-74
2023/05/21 06:30:36;;;;;;;;;;;;;;;23.70;35.97;101246.44;4133427;28;19922;-73
2023/05/21 06:32:38;;;;;;;;;;;;;;;23.66;35.85;101255.72;4133077;28;20012;-73
2023/05/21 06:34:39;;;;;;;;;;;;;;;23.61;36.00;101254.28;4132513;28;19922;-73
2023/05/21 06:36:41;;;;;;;;;;;;;;;23.60;35.90;101265.16;4133356;28;19922;-71
2023/05/21 06:38:43;;;;;;;;;;;;;;;23.59;36.08;101260.75;4133394;28;19926;-71
2023/05/21 06:40:46;;;;;;;;;;;;;;;23.60;35.81;101263.31;4133319;28;19996;-71
2023/05/21 06:42:47;;;;;;;;;;;;;;;23.58;35.96;101254.50;4133457;28;19922;-71
2023/05/21 06:44:49;;;;;;;;;;;;;;;23.60;36.11;101255.25;4132232;28;19921;-71
2023/05/21 06:46:51;;;;;;;;;;;;;;;23.60;35.76;101260.63;4132928;28;19964;-71
2023/05/21 06:48:52;;;;;;;;;;;;;;;23.61;35.95;101258.81;4132976;28;19925;-71
2023/05/21 06:50:54;;;;;;;;;;;;;;;23.62;36.06;101263.16;4133031;28;19961;-70
2023/05/21 06:52:56;;;;;;;;;;;;;;;23.60;35.65;101259.78;4133402;28;19976;-71
2023/05/21 06:54:57;;;;;;;;;;;;;;;23.60;35.69;101262.47;4132175;28;20028;-70
2023/05/21 06:56:59;;;;;;;;;;;;;;;23.56;36.10;101259.19;4132258;28;20375;-71
2023/05/21 06:59:00;;;;;;;;;;;;;;;23.58;35.92;101261.72;4133069;28;19929;-71
2023/05/21 07:01:02;;;;;;;;;;;;;;;23.58;36.02;101256.34;4132732;28;19921;-71
2023/05/21 07:03:04;;;;;;;;;;;;;;;23.59;35.81;101256.22;4133357;28;19926;-71
2023/05/21 07:05:06;;;;;;;;;;;;;;;23.59;36.28;101258.06;4132044;28;19928;-73
2023/05/21 07:07:08;;;;;;;;;;;;;;;23.58;35.90;101256.34;4133239;28;20418;-72
2023/05/21 07:09:10;;;;;;;;;;;;;;;23.59;35.82;101263.44;4133180;28;19921;-71
2023/05/21 07:11:11;;;;;;;;;;;;;;;23.58;36.19;101256.34;4132916;28;19921;-72
2023/05/21 07:13:13;;;;;;;;;;;;;;;23.60;36.03;101255.25;4132260;28;19921;-72
2023/05/21 07:15:14;;;;;;;;;;;;;;;23.58;36.01;101251.81;4132545;28;19926;-72
2023/05/21 07:17:16;;;;;;;;;;;;;;;23.58;36.26;101254.50;4131921;28;19922;-72
2023/05/21 07:19:17;;;;;;;;;;;;;;;23.52;36.43;101248.81;4115474;28;19976;-72
2023/05/21 07:21:19;;;;;;;;;;;;;;;23.61;36.24;101258.81;4132882;28;19922;-72
2023/05/21 07:23:21;;;;;;;;;;;;;;;23.60;36.26;101259.78;4131526;28;20346;-69
2023/05/21 07:25:22;;;;;;;;;;;;;;;23.60;36.34;101266.00;4132232;28;19922;-72
2023/05/21 07:27:24;;;;;;;;;;;;;;;23.58;36.21;101262.56;4132345;28;19936;-71
2023/05/21 07:29:26;;;;;;;;;;;;;;;23.56;36.50;101266.34;4132332;28;19922;-71
2023/05/21 07:31:28;;;;;;;;;;;;;;;23.54;36.39;101261.13;4131867;28;19922;-71
2023/05/21 07:33:29;;;;;;;;;;;;;;;23.52;36.21;101260.38;4131513;28;19976;-71
2023/05/21 07:35:31;;;;;;;;;;;;;;;23.52;36.37;101265.75;4132158;28;20007;-71
2023/05/21 07:37:32;;;;;;;;;;;;;;;23.53;36.45;101262.09;4115044;28;19961;-71
2023/05/21 07:39:34;;;;;;;;;;;;;;;23.57;36.26;101255.53;4132364;28;20350;-72
2023/05/21 07:41:36;;;;;;;;;;;;;;;23.57;36.27;101257.34;4132526;28;19930;-72
2023/05/21 07:43:37;;;;;;;;;;;;;;;23.58;36.25;101259.88;4131644;28;19941;-72
2023/05/21 07:45:39;;;;;;;;;;;;;;;23.60;36.49;101259.78;4131572;28;19960;-72
2023/05/21 07:47:41;;;;;;;;;;;;;;;23.60;36.25;101257.94;4114768;28;19922;-70
2023/05/21 07:49:43;;;;;;;;;;;;;;;23.61;36.62;101256.13;4132293;28;19966;-71
2023/05/21 07:51:44;;;;;;;;;;;;;;;23.60;36.54;101265.16;4132209;28;20032;-71
2023/05/21 07:53:46;;;;;;;;;;;;;;;23.60;36.55;101257.09;4131172;28;19929;-71
2023/05/21 07:55:48;;;;;;;;;;;;;;;23.57;36.62;101252.84;4132279;28;19921;-71
2023/05/21 07:57:51;;;;;;;;;;;;;;;23.54;36.67;101252.22;4132029;28;20088;-71
2023/05/21 07:59:52;;;;;;;;;;;;;;;23.52;36.91;101255.03;4131528;28;19926;-71
2023/05/21 08:01:54;;;;;;;;;;;;;;;23.54;36.78;101254.91;4131770;28;20017;-72
2023/05/21 08:03:55;;;;;;;;;;;;;;;23.54;36.60;101253.06;4131142;28;19928;-71
2023/05/21 08:05:57;;;;;;;;;;;;;;;23.56;36.70;101252.94;4131903;28;20425;-72
2023/05/21 08:07:59;;;;;;;;;;;;;;;23.58;36.62;101259.03;4131766;28;19922;-72
2023/05/21 08:10:01;;;;;;;;;;;;;;;23.58;36.58;101261.72;4131811;28;20351;-72
2023/05/21 08:12:03;;;;;;;;;;;;;;;23.57;36.60;101257.34;4131868;28;20348;-71
2023/05/21 08:14:05;;;;;;;;;;;;;;;23.58;36.47;101261.72;4130544;28;19929;-71
2023/05/21 08:16:07;;;;;;;;;;;;;;;23.56;36.93;101253.81;4130662;28;20307;-71
2023/05/21 08:18:08;;;;;;;;;;;;;;;23.54;36.64;101246.88;4132121;28;19922;-71
2023/05/21 08:20:12;;;;;;;;;;;;;;;23.52;36.55;101251.50;4131808;28;20013;-71
2023/05/21 08:22:13;;;;;;;;;;;;;;;23.52;36.86;101246.13;4131731;28;20013;-71
2023/05/21 08:24:15;;;;;;;;;;;;;;;23.54;36.78;101249.56;4130727;28;19921;-71
2023/05/21 08:26:17;;;;;;;;;;;;;;;23.57;36.93;101247.47;4131387;28;19928;-71
2023/05/21 08:28:20;;;;;;;;;;;;;;;23.57;36.84;101246.59;4131295;28;19925;-71
2023/05/21 08:30:22;;;;;;;;;;;;;;;23.57;36.80;101241.22;4131383;28;20421;-72
2023/05/21 08:32:23;;;;;;;;;;;;;;;23.57;36.56;101236.72;4131737;28;19922;-71
2023/05/21 08:34:25;;;;;;;;;;;;;;;23.57;36.75;101231.34;4130616;28;19953;-72
2023/05/21 08:36:27;;;;;;;;;;;;;;;23.63;36.72;101232.66;4131590;28;19964;-71
2023/05/21 08:38:28;;;;;;;;;;;;;;;23.63;36.48;101226.44;4131568;28;20371;-72
2023/05/21 08:40:31;;;;;;;;;;;;;;;23.60;36.61;101231.09;4131695;28;19929;-72
2023/05/21 08:42:39;;;;;;;;;;;;;;;23.65;36.52;101238.75;4131136;28;19921;-72
2023/05/21 08:44:43;;;;;;;;;;;;;;;23.65;36.22;101229.88;4130481;28;19944;-71
2023/05/21 08:46:48;;;;;;;;;;;;;;;23.61;36.64;101240.84;4131441;28;20097;-72
2023/05/21 08:48:54;;;;;;;;;;;;;;;23.60;36.50;101236.44;4130950;28;19921;-72
2023/05/21 08:50:57;;;;;;;;;;;;;;;23.59;36.48;101232.06;4131399;28;19922;-71
2023/05/21 08:53:00;;;;;;;;;;;;;;;23.58;36.45;101233.03;4131476;28;20346;-72
2023/05/21 08:55:05;;;;;;;;;;;;;;;23.60;36.33;101238.28;4113450;28;19922;-71
2023/05/21 08:57:06;;;;;;;;;;;;;;;23.57;36.17;101234.03;4131047;28;19977;-71
2023/05/21 08:59:08;;;;;;;;;;;;;;;23.59;36.40;101236.59;4130093;28;20310;-72
2023/05/21 09:01:11;;;;;;;;;;;;;;;23.59;36.22;101234.75;4131352;28;20386;-72
2023/05/21 09:03:13;;;;;;;;;;;;;;;23.59;36.08;101236.59;4131136;28;19968;-71
2023/05/21 09:05:15;;;;;;;;;;;;;;;23.60;35.85;101240.97;4129014;28;19932;-72
2023/05/21 09:07:17;;;;;;;;;;;;;;;23.58;35.89;101230.34;4131251;28;20008;-71
2023/05/21 09:09:32;;;;;;;;;;;;;;;23.59;36.20;101236.59;4131052;28;19921;-71
2023/05/21 09:11:33;;;;;;;;;;;;;;;23.58;35.97;101229.50;4130776;28;20509;-71
2023/05/21 09:13:36;;;;;;;;;;;;;;;23.56;36.01;101229.66;4130818;28;19949;-71
2023/05/21 09:15:40;;;;;;;;;;;;;;;23.54;36.06;101231.59;4130617;28;19922;-71
2023/05/21 09:17:45;;;;;;;;;;;;;;;23.52;35.86;101228.19;4130108;28;20259;-71
2023/05/21 09:20:12;;;;;;;;;;;;;;;23.52;35.88;101222.81;4130733;28;19922;-71
2023/05/21 09:22:14;;;;;;;;;;;;;;;23.50;36.16;101226.59;4130814;28;20303;-71
2023/05/21 09:24:16;;;;;;;;;;;;;;;23.51;36.22;101226.47;4129891;28;19969;-72
2023/05/21 09:26:20;;;;;;;;;;;;;;;23.50;36.20;101229.28;4130803;28;20012;-72
2023/05/21 09:28:22;;;;;;;;;;;;;;;23.52;36.22;101230.84;4131177;28;19975;-72
2023/05/21 09:30:23;;;;;;;;;;;;;;;23.53;36.37;101235.25;4131247;28;20038;-72
2023/05/21 09:32:36;;;;;;;;;;;;;;;23.52;36.37;101232.69;4131431;28;19922;-72
2023/05/21 09:34:38;;;;;;;;;;;;;;;23.52;36.50;101227.34;4130096;28;19922;-71
2023/05/21 09:36:39;;;;;;;;;;;;;;;23.55;36.35;101232.44;4131108;28;19922;-71
2023/05/21 09:38:41;;;;;;;;;;;;;;;23.52;36.31;101228.19;4130743;28;20008;-71
2023/05/21 09:40:45;;;;;;;;;;;;;;;23.56;36.16;101235.00;4132035;28;19928;-71
2023/05/21 09:42:48;;;;;;;;;;;;;;;23.56;36.46;101229.66;4134250;28;19922;-71
2023/05/21 09:44:50;;;;;;;;;;;;;;;23.60;36.48;101224.88;4133365;28;19926;-71
2023/05/21 09:46:56;;;;;;;;;;;;;;;23.60;36.52;101225.72;4134233;28;19932;-71
2023/05/21 09:48:58;;;;;;;;;;;;;;;23.63;36.38;101223.75;4134144;28;19921;-72
2023/05/21 09:51:06;;;;;;;;;;;;;;;23.64;36.47;101228.16;4134147;28;20395;-71
2023/05/21 09:53:13;;;;;;;;;;;;;;;23.61;36.63;101227.41;4132868;28;19928;-72
2023/05/21 09:55:15;;;;;;;;;;;;;;;23.63;36.63;101229.13;4132620;28;19921;-71
2023/05/21 09:57:21;;;;;;;;;;;;;;;23.65;36.32;101221.81;4134036;28;19943;-72
2023/05/21 09:59:24;;;;;;;;;;;;;;;23.68;36.34;101217.03;4134038;28;19961;-72
2023/05/21 10:01:26;;;;;;;;;;;;;;;23.69;36.43;101207.97;4133766;28;19925;-72
2023/05/21 10:03:28;;;;;;;;;;;;;;;23.71;36.33;101213.25;4133825;28;19947;-72
2023/05/21 10:05:30;;;;;;;;;;;;;;;23.71;36.41;101211.38;4133081;28;19926;-72
2023/05/21 10:07:32;;;;;;;;;;;;;;;23.69;36.49;101210.66;4133864;28;20431;-72
2023/05/21 10:09:34;;;;;;;;;;;;;;;23.67;36.74;101201.91;4133570;28;20434;-71
2023/05/21 10:11:36;;;;;;;;;;;;;;;23.67;36.60;101201.91;4133892;28;19945;-72
2023/05/21 10:13:40;;;;;;;;;;;;;;;23.72;36.51;101193.44;4133376;28;20013;-72
2023/05/21 10:15:43;;;;;;;;;;;;;;;23.72;36.50;101197.00;4131350;28;19961;-72
2023/05/21 10:17:46;;;;;;;;;;;;;;;23.75;36.58;101196.72;4133499;28;20024;-71
2023/05/21 10:19:48;;;;;;;;;;;;;;;23.75;36.63;101198.56;4133598;28;19921;-71
2023/05/21 10:21:51;;;;;;;;;;;;;;;23.73;36.63;101189.78;4133712;28;20311;-71
2023/05/21 10:23:56;;;;;;;;;;;;;;;23.74;36.62;101195.03;4132407;28;19926;-71
2023/05/21 10:25:58;;;;;;;;;;;;;;;23.75;36.38;101188.66;4133180;28;20342;-70
2023/05/21 10:28:00;;;;;;;;;;;;;;;23.79;36.33;101201.84;4133650;28;19922;-71